Observations for Trim Patrick St
| Time | AQI | Temp °C | Hum % | Pres Pa | CO μg/m³ | H₂S μg/m³ | NO μg/m³ | NO₂ μg/m³ | O₃ μg/m³ | SO₂ μg/m³ | PM1 μg/m³ | PM2.5 μg/m³ | PM10 μg/m³ |
|---|---|---|---|---|---|---|---|---|---|---|---|---|---|
| Thursday 6 August 2026 | |||||||||||||
| 08:41 | 2 | 17.8 | 66 | 109,854 | 0.26 | 0 | 3.01 | 6.21 | 22.35 | 1.22 | 2.86 | 7.56 | 8.31 |
| 08:40 | 2 | 17.8 | 67 | 113,213 | 0.26 | 0 | 2.6 | 6.1 | 30.22 | 1.58 | 2 | 6.81 | 7.49 |
| 08:39 | 2 | 17.7 | 67 | 1,771 | 0.25 | 0 | 2.68 | 5.46 | 26.45 | 1.15 | 3.71 | 7.53 | 8.28 |
| 08:38 | 2 | 17.6 | 67 | 4,199 | 0.26 | 0 | 3.25 | 5.37 | 29.03 | 0.63 | 2.86 | 7.52 | 8.28 |
| 08:37 | 2 | 17.6 | 67 | 7,368 | 0.25 | 0 | 3.28 | 7.41 | 24.63 | 1.18 | 3.71 | 8.28 | 9.11 |
| 08:36 | 2 | 17.5 | 66 | 11,424 | 0.25 | 0 | 3.15 | 5.92 | 20.35 | 0.74 | 2.86 | 7.56 | 8.31 |
| 08:35 | 2 | 17.5 | 67 | 15,883 | 0.27 | 0 | 2.95 | 10.49 | 17.24 | 0.72 | 2.86 | 7.54 | 8.29 |
| 08:34 | 2 | 17.4 | 67 | 21,380 | 0.25 | 0 | 3.12 | 5.68 | 28.4 | 0.79 | 2 | 6.04 | 6.65 |
| 08:33 | 2 | 17.3 | 67 | 26,274 | 0.25 | 0 | 2.67 | 5.31 | 25.11 | 0.21 | 2.86 | 7.52 | 8.27 |
| 08:32 | 2 | 17.3 | 67 | 30,535 | 0.26 | 0 | 2.81 | 4.97 | 18.85 | 0 | 2 | 5.32 | 5.85 |
| 08:31 | 2 | 17.2 | 69 | 35,431 | 0.28 | 0 | 2.46 | 5.21 | 25.58 | 0.06 | 2 | 5.2 | 5.72 |
| 08:30 | 2 | 17.1 | 69 | 38,460 | 0.32 | 0 | 2.78 | 9.86 | 23.61 | 1.27 | 2 | 5.94 | 6.54 |
| 08:29 | 2 | 17.1 | 68 | 38,460 | 0.29 | 0 | 2.55 | 8.04 | 26.61 | 0.43 | 2 | 5.98 | 6.57 |
| 08:28 | 2 | 17 | 68 | 38,460 | 0.29 | 0 | 2.62 | 7.92 | 26.07 | 0.42 | 2 | 6.7 | 7.37 |
| 08:27 | 2 | 17 | 68 | 38,460 | 0.28 | 0 | 3.17 | 6.8 | 24.65 | 0.49 | 2 | 5.25 | 5.78 |
| 08:26 | 2 | 16.9 | 69 | 38,460 | 0.27 | 0 | 3.74 | 5.6 | 28.69 | 0 | 2.86 | 5.96 | 6.55 |
| 08:25 | 2 | 16.9 | 70 | 38,460 | 0.32 | 0 | 3.44 | 7.52 | 24.67 | 0 | 2 | 5.15 | 5.66 |
| 08:24 | 2 | 16.8 | 69 | 38,460 | 0.48 | 0 | 3.19 | 23.13 | 14.53 | 2.84 | 2.86 | 6.63 | 7.3 |
| 08:23 | 2 | 16.7 | 70 | 38,460 | 0.3 | 0 | 2.58 | 10.22 | 23.15 | 0 | 2 | 5.89 | 6.48 |
| 08:22 | 2 | 16.7 | 70 | 38,460 | 0.29 | 0 | 2.45 | 7.19 | 27.64 | 0.11 | 2.86 | 6.61 | 7.28 |